This is the latest recevied weather packets stored in our database for station/object OE-11213. If no packets are shown the sender has not sent any weather packets the latest 10 day(s).
| Time | Temp. | Humidity | Pressure | Rain* | Wind** | Luminosity | Snow |
|---|---|---|---|---|---|---|---|
| 1788023129 | 23.33° C | 59% | 1014.2 hPa | 0 mm | - | 116 W/m² | - |
| 1788022530 | 23.33° C | 58% | 1014.2 hPa | 0 mm | - | 145 W/m² | - |
| 1788021703 | 23.33° C | 57% | 1014 hPa | 0 mm | - | 138 W/m² | - |
| 1788021330 | 23.89° C | 56% | 1014 hPa | 0 mm | - | 189 W/m² | - |
| 1788020729 | 23.33° C | 56% | 1014.2 hPa | 0 mm | - | 116 W/m² | - |
| 1788019903 | 23.33° C | 55% | 1014.2 hPa | 0 mm | - | 73 W/m² | - |
| 1788019530 | 23.89° C | 55% | 1014.3 hPa | 0 mm | - | 94 W/m² | - |
| 1788018929 | 23.89° C | 53% | 1014.4 hPa | 0 mm | - | 109 W/m² | - |
| 1788018103 | 23.89° C | 49% | 1014.6 hPa | 0 mm | - | 123 W/m² | - |
| 1788017730 | 23.89° C | 48% | 1014.5 hPa | 0 mm | - | 138 W/m² | - |
| 1788017130 | 23.89° C | 49% | 1014.5 hPa | 0 mm | - | 160 W/m² | - |
| 1788016303 | 23.89° C | 48% | 1014.2 hPa | 0 mm | - | 334 W/m² | - |
| 1788015930 | 24.44° C | 47% | 1014.1 hPa | 0 mm | - | 348 W/m² | - |
| 1788015330 | 24.44° C | 47% | 1014.4 hPa | 0 mm | - | 319 W/m² | - |
| 1788014503 | 24.44° C | 46% | 1014.5 hPa | 0 mm | - | 370 W/m² | - |
| 1788014130 | 24.44° C | 48% | 1014.4 hPa | 0 mm | - | 464 W/m² | - |
| 1788013529 | 23.89° C | 49% | 1014.6 hPa | 0 mm | - | 254 W/m² | - |
| 1788012703 | 23.33° C | 49% | 1014.8 hPa | 0 mm | - | 131 W/m² | - |
| 1788012330 | 23.89° C | 49% | 1014.8 hPa | 0 mm | - | 189 W/m² | - |
| 1788011730 | 23.89° C | 48% | 1014.7 hPa | 0 mm | - | 268 W/m² | - |
| 1788010903 | 23.89° C | 47% | 1014.7 hPa | 0 mm | - | 283 W/m² | - |
| 1788010530 | 23.89° C | 46% | 1014.8 hPa | 0 mm | - | 225 W/m² | - |
| 1788009929 | 23.89° C | 46% | 1014.8 hPa | 0 mm | - | 435 W/m² | - |
| 1788009103 | 24.44° C | 46% | 1014.6 hPa | 0 mm | - | 566 W/m² | - |
| 1788008730 | 23.89° C | 46% | 1014.7 hPa | 0 mm | - | 457 W/m² | - |
* Rain latest hour (hover to see other rain measurements)
** Current wind speed in m/s (hover to see current wind gust speed)